Time;durP1;ratioP1;P1;durP2;ratioP2;P2;SDS_P1;SDS_P2;PMS_P1;PMS_P2;Temp;Humidity;BMP_temperature;BMP_pressure;BME280_temperature;BME280_humidity;BME280_pressure;Samples;Min_cycle;Max_cycle;Signal;HPM_P1;HPM_P2
2022/10/28 00:01:56;;;;;;;;;;;13.30;82.00;;;;;;5045460;28;19989;-78
2022/10/28 00:04:21;;;;;;;;;;;13.30;82.00;;;;;;5044796;28;20268;-78
2022/10/28 00:06:47;;;;;;;;;;;13.20;82.00;;;;;;5041528;28;19916;-78
2022/10/28 00:09:12;;;;;;;;;;;13.20;82.00;;;;;;5038868;28;19928;-78
2022/10/28 00:11:38;;;;;;;;;;;13.20;82.00;;;;;;5036850;28;20000;-78
2022/10/28 00:14:04;;;;;;;;;;;13.20;82.00;;;;;;5039908;28;19917;-78
2022/10/28 00:16:30;;;;;;;;;;;13.10;82.00;;;;;;5043007;28;19925;-77
2022/10/28 00:18:56;;;;;;;;;;;13.10;82.10;;;;;;5051842;28;19932;-77
2022/10/28 00:21:24;;;;;;;;;;;13.10;82.10;;;;;;5040029;28;19960;-78
2022/10/28 00:23:50;;;;;;;;;;;13.10;82.10;;;;;;5039420;28;19970;-77
2022/10/28 00:26:19;;;;;;;;;;;13.10;82.10;;;;;;5042389;28;19929;-77
2022/10/28 00:28:46;;;;;;;;;;;13.10;82.10;;;;;;5043505;28;19939;-78
2022/10/28 00:31:12;;;;;;;;;;;13.10;82.20;;;;;;5040461;28;19932;-77
2022/10/28 00:33:37;;;;;;;;;;;13.10;82.20;;;;;;5039023;28;20571;-78
2022/10/28 00:36:12;;;;;;;;;;;13.10;82.20;;;;;;5042222;28;20000;-77
2022/10/28 00:38:38;;;;;;;;;;;13.00;82.20;;;;;;5054766;28;19988;-78
2022/10/28 00:41:04;;;;;;;;;;;13.00;82.20;;;;;;5054119;28;19925;-76
2022/10/28 00:43:33;;;;;;;;;;;13.00;82.20;;;;;;5039657;28;19924;-77
2022/10/28 00:45:58;;;;;;;;;;;13.00;82.30;;;;;;5044718;28;19921;-78
2022/10/28 00:48:24;;;;;;;;;;;13.00;82.30;;;;;;5039375;28;19917;-77
2022/10/28 00:50:50;;;;;;;;;;;13.00;82.30;;;;;;5039445;28;19954;-77
2022/10/28 00:53:18;;;;;;;;;;;13.00;82.30;;;;;;5038472;28;19917;-78
2022/10/28 00:55:43;;;;;;;;;;;13.00;82.40;;;;;;5041642;28;19924;-77
2022/10/28 00:58:09;;;;;;;;;;;13.00;82.30;;;;;;5043875;28;19917;-77
2022/10/28 01:00:34;;;;;;;;;;;13.00;82.40;;;;;;5058490;28;19937;-79
2022/10/28 01:03:00;;;;;;;;;;;13.00;82.40;;;;;;5040945;28;19925;-77
2022/10/28 01:05:26;;;;;;;;;;;13.00;82.40;;;;;;5043098;28;20028;-78
2022/10/28 01:07:52;;;;;;;;;;;13.00;82.40;;;;;;5041055;28;19960;-77
2022/10/28 01:10:17;;;;;;;;;;;13.00;82.40;;;;;;5059451;28;19924;-79
2022/10/28 01:12:52;;;;;;;;;;;13.00;82.40;;;;;;5042995;28;19921;-79
2022/10/28 01:15:44;;;;;;;;;;;13.00;82.30;;;;;;5042817;28;19924;-79
2022/10/28 01:18:09;;;;;;;;;;;13.00;82.30;;;;;;5041684;28;20279;-77
2022/10/28 01:20:44;;;;;;;;;;;12.90;82.30;;;;;;5044008;28;19948;-78
2022/10/28 01:23:27;;;;;;;;;;;12.90;82.40;;;;;;5042008;28;19984;-78
2022/10/28 01:26:05;;;;;;;;;;;12.90;82.40;;;;;;5041622;28;19921;-79
2022/10/28 01:29:09;;;;;;;;;;;12.90;82.40;;;;;;5044805;28;19917;-79
2022/10/28 01:31:41;;;;;;;;;;;12.90;82.40;;;;;;4986247;28;19924;-78
2022/10/28 01:34:08;;;;;;;;;;;12.90;83.20;;;;;;4988272;28;19986;-77
2022/10/28 01:36:43;;;;;;;;;;;12.90;82.40;;;;;;4971724;28;19994;-78
2022/10/28 01:39:17;;;;;;;;;;;12.90;82.40;;;;;;4984613;28;19922;-79
2022/10/28 01:41:50;;;;;;;;;;;12.90;82.40;;;;;;4985760;28;20005;-78
2022/10/28 01:44:16;;;;;;;;;;;12.90;82.40;;;;;;4981626;28;19945;-78
2022/10/28 01:46:41;;;;;;;;;;;12.90;82.40;;;;;;4988993;28;19919;-77
2022/10/28 01:49:09;;;;;;;;;;;12.80;82.40;;;;;;4982438;28;19973;-78
2022/10/28 01:51:35;;;;;;;;;;;12.80;82.40;;;;;;4985508;28;19988;-77
2022/10/28 01:54:02;;;;;;;;;;;12.80;82.50;;;;;;4970972;28;19921;-77
2022/10/28 01:56:29;;;;;;;;;;;12.80;82.50;;;;;;4967770;28;19933;-78
2022/10/28 01:58:55;;;;;;;;;;;12.80;82.50;;;;;;4981570;28;19983;-79
2022/10/28 02:01:21;;;;;;;;;;;12.80;82.50;;;;;;4987294;28;20246;-78
2022/10/28 02:03:46;;;;;;;;;;;12.80;82.50;;;;;;5014813;28;19961;-78
2022/10/28 02:06:16;;;;;;;;;;;12.80;82.50;;;;;;5015061;28;19968;-77
2022/10/28 02:09:03;;;;;;;;;;;12.80;82.50;;;;;;5000238;28;19917;-78
2022/10/28 02:11:51;;;;;;;;;;;12.80;82.50;;;;;;5016771;28;19917;-78
2022/10/28 02:14:23;;;;;;;;;;;12.90;82.50;;;;;;5002402;28;19924;-78
2022/10/28 02:17:01;;;;;;;;;;;12.90;82.50;;;;;;5016729;28;20009;-78
2022/10/28 02:19:42;;;;;;;;;;;12.80;82.50;;;;;;5013981;28;19918;-79
2022/10/28 02:22:15;;;;;;;;;;;12.80;82.50;;;;;;5010422;28;20179;-77
2022/10/28 02:24:59;;;;;;;;;;;12.80;82.50;;;;;;5015602;28;19925;-78
2022/10/28 02:27:43;;;;;;;;;;;12.80;82.50;;;;;;5013019;28;19929;-78
2022/10/28 02:30:13;;;;;;;;;;;12.80;82.50;;;;;;5013434;28;19964;-78
2022/10/28 02:32:40;;;;;;;;;;;12.80;82.50;;;;;;5013429;28;19917;-77
2022/10/28 02:35:14;;;;;;;;;;;12.80;82.50;;;;;;5009092;28;19918;-77
2022/10/28 02:37:40;;;;;;;;;;;12.80;82.50;;;;;;5008705;28;19941;-77
2022/10/28 02:40:06;;;;;;;;;;;12.80;82.50;;;;;;5016519;28;20325;-77
2022/10/28 02:42:32;;;;;;;;;;;12.70;82.40;;;;;;5009634;28;19921;-78
2022/10/28 02:44:59;;;;;;;;;;;12.80;82.50;;;;;;5016055;28;19926;-78
2022/10/28 02:47:25;;;;;;;;;;;12.70;82.40;;;;;;4997456;28;19961;-78
2022/10/28 02:49:52;;;;;;;;;;;12.70;82.50;;;;;;5021806;28;19922;-78
2022/10/28 02:52:18;;;;;;;;;;;12.70;82.50;;;;;;5011569;28;19918;-79
2022/10/28 02:54:48;;;;;;;;;;;12.70;82.50;;;;;;5013116;28;19929;-78
2022/10/28 02:57:14;;;;;;;;;;;12.70;82.50;;;;;;5001832;28;20024;-78
2022/10/28 02:59:40;;;;;;;;;;;12.70;82.50;;;;;;5007723;28;20494;-79
2022/10/28 03:02:06;;;;;;;;;;;12.70;82.60;;;;;;5029656;28;19925;-78
2022/10/28 03:04:31;;;;;;;;;;;12.70;82.60;;;;;;5047547;28;20407;-78
2022/10/28 03:06:57;;;;;;;;;;;12.70;82.60;;;;;;5046473;28;19948;-79
2022/10/28 03:09:22;;;;;;;;;;;12.70;82.60;;;;;;5044271;28;19936;-78
2022/10/28 03:11:48;;;;;;;;;;;12.70;82.60;;;;;;5043698;28;19948;-78
2022/10/28 03:14:13;;;;;;;;;;;12.70;82.70;;;;;;5032909;28;20068;-78
2022/10/28 03:16:39;;;;;;;;;;;12.70;82.70;;;;;;5048934;28;19936;-78
2022/10/28 03:19:04;;;;;;;;;;;12.70;82.70;;;;;;5047290;28;19917;-78
2022/10/28 03:21:30;;;;;;;;;;;12.70;82.70;;;;;;5047612;28;19921;-79
2022/10/28 03:23:55;;;;;;;;;;;12.60;82.60;;;;;;5044187;28;19948;-77
2022/10/28 03:26:21;;;;;;;;;;;12.60;82.60;;;;;;5049248;28;19984;-78
2022/10/28 03:28:46;;;;;;;;;;;12.60;82.60;;;;;;5047272;28;19917;-78
2022/10/28 03:31:13;;;;;;;;;;;12.60;82.70;;;;;;5046309;28;19952;-78
2022/10/28 03:33:39;;;;;;;;;;;12.60;82.70;;;;;;5050279;28;19955;-77
2022/10/28 03:36:05;;;;;;;;;;;12.60;82.80;;;;;;5047269;28;19917;-77
2022/10/28 03:38:30;;;;;;;;;;;12.60;82.80;;;;;;5062901;28;19917;-78
2022/10/28 03:40:56;;;;;;;;;;;12.60;82.80;;;;;;5047408;28;19927;-78
2022/10/28 03:43:21;;;;;;;;;;;12.60;82.80;;;;;;5044515;28;19920;-79
2022/10/28 03:45:47;;;;;;;;;;;12.60;82.80;;;;;;5055210;28;19917;-80
2022/10/28 03:48:12;;;;;;;;;;;12.60;82.80;;;;;;5043363;28;19917;-78
2022/10/28 03:50:38;;;;;;;;;;;12.60;82.80;;;;;;5043497;28;19963;-79
2022/10/28 03:53:03;;;;;;;;;;;12.60;82.80;;;;;;5043866;28;20575;-77
2022/10/28 03:55:29;;;;;;;;;;;12.60;82.80;;;;;;5044914;28;19953;-79
2022/10/28 03:57:54;;;;;;;;;;;12.60;82.80;;;;;;5044452;28;19939;-78
2022/10/28 04:00:20;;;;;;;;;;;12.70;82.80;;;;;;5047326;28;19921;-78
2022/10/28 04:02:49;;;;;;;;;;;12.70;82.80;;;;;;5030229;28;19931;-78
2022/10/28 04:05:14;;;;;;;;;;;12.70;82.80;;;;;;5042056;28;19925;-79
2022/10/28 04:07:40;;;;;;;;;;;12.70;82.70;;;;;;5049004;28;19973;-78
2022/10/28 04:10:05;;;;;;;;;;;12.70;82.70;;;;;;5040870;28;19913;-79
2022/10/28 04:12:31;;;;;;;;;;;12.70;82.70;;;;;;5036163;28;19913;-79
2022/10/28 04:14:56;;;;;;;;;;;12.80;82.70;;;;;;5040305;28;20000;-79
2022/10/28 04:17:22;;;;;;;;;;;12.70;82.70;;;;;;5040213;28;20259;-79
2022/10/28 04:19:47;;;;;;;;;;;12.70;82.70;;;;;;5038615;28;19945;-79
2022/10/28 04:22:12;;;;;;;;;;;12.70;82.70;;;;;;5039734;28;19929;-79
2022/10/28 04:24:38;;;;;;;;;;;12.70;82.70;;;;;;5043385;28;19936;-79
2022/10/28 04:27:03;;;;;;;;;;;12.70;82.70;;;;;;5043878;28;20075;-77
2022/10/28 04:29:30;;;;;;;;;;;12.70;82.60;;;;;;5050506;28;19986;-78
2022/10/28 04:31:55;;;;;;;;;;;12.80;82.80;;;;;;5038239;28;19952;-79
2022/10/28 04:34:21;;;;;;;;;;;12.70;82.70;;;;;;5044746;28;19912;-79
2022/10/28 04:36:46;;;;;;;;;;;12.70;82.70;;;;;;5040208;28;20000;-79
2022/10/28 04:39:11;;;;;;;;;;;12.70;82.70;;;;;;5043256;28;19924;-80
2022/10/28 04:41:39;;;;;;;;;;;12.80;82.80;;;;;;5042641;28;19949;-79
2022/10/28 04:44:04;;;;;;;;;;;12.70;82.70;;;;;;5049814;28;19944;-78
2022/10/28 04:46:30;;;;;;;;;;;12.70;82.70;;;;;;5052160;28;19913;-79
2022/10/28 04:48:55;;;;;;;;;;;12.70;82.70;;;;;;5051901;28;19923;-80
2022/10/28 04:51:20;;;;;;;;;;;12.70;82.70;;;;;;5049339;28;19967;-78
2022/10/28 04:53:46;;;;;;;;;;;12.70;82.70;;;;;;5052967;28;19917;-78
2022/10/28 04:56:12;;;;;;;;;;;12.70;82.70;;;;;;5051811;28;19916;-78
2022/10/28 04:58:37;;;;;;;;;;;12.70;82.70;;;;;;5052046;28;19913;-79
2022/10/28 05:01:06;;;;;;;;;;;12.70;82.70;;;;;;5052447;28;19944;-77
2022/10/28 05:03:31;;;;;;;;;;;12.70;82.70;;;;;;5054675;28;19916;-78
2022/10/28 05:05:57;;;;;;;;;;;12.70;82.70;;;;;;5047471;28;20046;-78
2022/10/28 05:08:22;;;;;;;;;;;12.80;82.80;;;;;;5035785;28;19924;-78
2022/10/28 05:10:49;;;;;;;;;;;12.80;82.80;;;;;;5046857;28;19932;-79
2022/10/28 05:13:15;;;;;;;;;;;12.80;82.80;;;;;;5052859;28;19917;-77
2022/10/28 05:15:41;;;;;;;;;;;12.80;82.80;;;;;;5048270;28;19917;-78
2022/10/28 05:18:06;;;;;;;;;;;12.70;82.70;;;;;;5051964;28;19979;-78
2022/10/28 05:20:32;;;;;;;;;;;12.70;82.70;;;;;;5048438;28;19957;-79
2022/10/28 05:22:57;;;;;;;;;;;12.70;82.70;;;;;;5049159;28;19932;-78
2022/10/28 05:25:23;;;;;;;;;;;12.80;82.80;;;;;;5051704;28;19925;-78
2022/10/28 05:27:49;;;;;;;;;;;12.80;82.80;;;;;;5052896;28;19917;-78
2022/10/28 05:30:14;;;;;;;;;;;12.80;82.80;;;;;;5050176;28;19905;-78
2022/10/28 05:32:40;;;;;;;;;;;12.70;82.80;;;;;;5052943;28;19948;-77
2022/10/28 05:35:05;;;;;;;;;;;12.70;82.70;;;;;;5052173;28;19913;-78
2022/10/28 05:37:31;;;;;;;;;;;12.70;82.80;;;;;;5057942;28;19928;-78
2022/10/28 05:39:56;;;;;;;;;;;12.70;82.80;;;;;;5053178;28;19963;-78
2022/10/28 05:42:22;;;;;;;;;;;12.70;82.80;;;;;;5063177;28;20496;-79
2022/10/28 05:44:47;;;;;;;;;;;12.70;82.80;;;;;;5055273;28;19916;-77
2022/10/28 05:47:13;;;;;;;;;;;12.70;82.80;;;;;;5049777;28;19939;-78
2022/10/28 05:49:38;;;;;;;;;;;12.70;82.80;;;;;;5037674;28;19928;-77
2022/10/28 05:52:04;;;;;;;;;;;12.70;82.80;;;;;;5051999;28;19948;-77
2022/10/28 05:54:29;;;;;;;;;;;12.70;82.80;;;;;;5052837;28;19925;-79
2022/10/28 05:56:55;;;;;;;;;;;12.70;82.90;;;;;;5049498;28;19913;-78
2022/10/28 05:59:20;;;;;;;;;;;12.70;82.90;;;;;;5046457;28;19935;-78
2022/10/28 06:01:46;;;;;;;;;;;12.70;82.90;;;;;;5047262;28;20124;-79
2022/10/28 06:04:11;;;;;;;;;;;12.60;82.80;;;;;;5062159;28;19925;-79
2022/10/28 06:06:37;;;;;;;;;;;12.60;82.90;;;;;;5063205;28;20062;-79
2022/10/28 06:09:02;;;;;;;;;;;12.60;82.90;;;;;;5049065;28;19974;-79
2022/10/28 06:11:28;;;;;;;;;;;12.60;83.00;;;;;;5047028;28;20514;-80
2022/10/28 06:13:53;;;;;;;;;;;12.60;82.90;;;;;;5062939;28;19931;-79
2022/10/28 06:16:18;;;;;;;;;;;12.60;82.90;;;;;;5044580;28;20727;-80
2022/10/28 06:18:44;;;;;;;;;;;12.60;83.00;;;;;;5038110;28;19913;-79
2022/10/28 06:21:09;;;;;;;;;;;12.60;83.00;;;;;;5034874;28;19980;-77
2022/10/28 06:23:35;;;;;;;;;;;12.60;82.90;;;;;;5059265;28;19926;-79
2022/10/28 06:26:01;;;;;;;;;;;12.60;82.90;;;;;;5041935;28;19972;-78
2022/10/28 06:28:26;;;;;;;;;;;12.60;82.90;;;;;;5046251;28;20300;-77
2022/10/28 06:30:52;;;;;;;;;;;12.60;82.90;;;;;;5034227;28;19925;-79
2022/10/28 06:33:17;;;;;;;;;;;12.70;83.00;;;;;;5026774;28;19924;-78
2022/10/28 06:35:43;;;;;;;;;;;12.60;82.90;;;;;;5048007;28;19932;-78
2022/10/28 06:38:09;;;;;;;;;;;12.60;83.00;;;;;;5047248;28;19928;-77
2022/10/28 06:40:34;;;;;;;;;;;12.70;83.00;;;;;;5051409;28;19918;-79
2022/10/28 06:43:00;;;;;;;;;;;12.70;83.00;;;;;;5047714;28;19975;-79
2022/10/28 06:45:29;;;;;;;;;;;12.70;83.00;;;;;;5038614;28;19917;-78
2022/10/28 06:48:00;;;;;;;;;;;12.70;83.00;;;;;;5061220;28;19941;-79
2022/10/28 06:50:26;;;;;;;;;;;12.60;82.90;;;;;;5034042;28;19917;-79
2022/10/28 06:52:53;;;;;;;;;;;12.60;82.90;;;;;;5052752;28;19956;-78
2022/10/28 06:55:19;;;;;;;;;;;12.60;83.00;;;;;;5042192;28;20016;-79
2022/10/28 06:57:44;;;;;;;;;;;12.60;83.00;;;;;;5045346;28;19960;-78
2022/10/28 07:00:10;;;;;;;;;;;12.60;83.10;;;;;;5024048;28;19921;-80
2022/10/28 07:02:35;;;;;;;;;;;12.60;83.10;;;;;;5049002;28;20008;-81
2022/10/28 07:05:01;;;;;;;;;;;12.60;83.00;;;;;;5038951;28;19913;-79
2022/10/28 07:07:26;;;;;;;;;;;12.60;83.00;;;;;;5035900;28;19921;-80
2022/10/28 07:09:52;;;;;;;;;;;12.60;83.10;;;;;;5044839;28;19921;-79
2022/10/28 07:12:17;;;;;;;;;;;12.60;83.00;;;;;;5043628;28;19916;-78
2022/10/28 07:14:43;;;;;;;;;;;12.60;83.00;;;;;;5043904;28;21388;-79
2022/10/28 07:17:08;;;;;;;;;;;12.70;83.10;;;;;;5040782;28;19920;-79
2022/10/28 07:19:34;;;;;;;;;;;12.60;83.00;;;;;;5044329;28;20003;-79
2022/10/28 07:21:59;;;;;;;;;;;12.70;83.10;;;;;;5038320;28;19928;-80
2022/10/28 07:24:25;;;;;;;;;;;12.70;83.00;;;;;;5040841;28;20509;-80
2022/10/28 07:26:50;;;;;;;;;;;12.70;83.00;;;;;;5043048;28;19917;-79
2022/10/28 07:29:16;;;;;;;;;;;12.70;83.00;;;;;;5044385;28;19921;-79
2022/10/28 07:31:41;;;;;;;;;;;12.70;83.00;;;;;;5040395;28;19959;-78
2022/10/28 07:34:07;;;;;;;;;;;12.70;83.00;;;;;;5048593;28;20348;-79
2022/10/28 07:36:32;;;;;;;;;;;12.70;83.00;;;;;;5034169;28;20394;-79
2022/10/28 07:38:58;;;;;;;;;;;12.80;83.00;;;;;;5030670;28;19917;-79
2022/10/28 07:41:23;;;;;;;;;;;12.80;83.10;;;;;;5036497;28;20361;-79
2022/10/28 07:43:49;;;;;;;;;;;12.80;83.00;;;;;;5041098;28;19921;-79
2022/10/28 07:46:14;;;;;;;;;;;12.80;83.00;;;;;;5042297;28;19998;-79
2022/10/28 07:48:40;;;;;;;;;;;12.90;83.10;;;;;;5039797;28;19984;-80
2022/10/28 07:51:06;;;;;;;;;;;12.90;83.10;;;;;;5035248;28;19926;-79
2022/10/28 07:53:31;;;;;;;;;;;13.00;83.00;;;;;;5051772;28;20433;-79
2022/10/28 07:55:57;;;;;;;;;;;13.10;83.00;;;;;;5044216;28;19921;-80
2022/10/28 07:58:23;;;;;;;;;;;13.20;83.00;;;;;;5044948;28;19929;-80
2022/10/28 08:00:48;;;;;;;;;;;13.30;82.90;;;;;;5047060;28;19944;-79
2022/10/28 08:03:14;;;;;;;;;;;13.40;82.80;;;;;;5051048;28;19935;-78
2022/10/28 08:05:39;;;;;;;;;;;13.40;83.50;;;;;;5053148;28;19944;-79
2022/10/28 08:08:05;;;;;;;;;;;13.40;82.60;;;;;;5050661;28;19932;-78
2022/10/28 08:10:30;;;;;;;;;;;13.50;82.70;;;;;;5051043;28;19917;-80
2022/10/28 08:12:57;;;;;;;;;;;13.50;82.60;;;;;;5058908;28;20007;-80
2022/10/28 08:15:23;;;;;;;;;;;13.60;82.60;;;;;;5066575;28;19925;-79
2022/10/28 08:17:54;;;;;;;;;;;13.60;82.60;;;;;;5049242;28;19958;-79
2022/10/28 08:20:20;;;;;;;;;;;13.70;82.60;;;;;;5047949;28;19921;-80
2022/10/28 08:22:45;;;;;;;;;;;13.70;82.50;;;;;;5047406;28;19929;-80
2022/10/28 08:25:11;;;;;;;;;;;13.80;82.50;;;;;;5047950;28;19956;-80
2022/10/28 08:27:36;;;;;;;;;;;13.80;82.50;;;;;;5047399;28;19924;-80
2022/10/28 08:30:02;;;;;;;;;;;13.90;82.50;;;;;;5046008;28;19932;-79
2022/10/28 08:32:28;;;;;;;;;;;14.00;82.60;;;;;;5059931;28;19913;-79
2022/10/28 08:34:53;;;;;;;;;;;14.00;82.40;;;;;;5043904;28;19952;-79
2022/10/28 08:37:19;;;;;;;;;;;14.10;82.40;;;;;;5041748;28;19960;-79
2022/10/28 08:39:44;;;;;;;;;;;14.20;82.30;;;;;;5047765;28;19913;-80
2022/10/28 08:42:28;;;;;;;;;;;14.30;82.20;;;;;;5041248;28;20463;-80
2022/10/28 08:44:53;;;;;;;;;;;14.40;82.20;;;;;;5036115;28;20015;-79
2022/10/28 08:47:37;;;;;;;;;;;14.40;82.10;;;;;;5047995;28;19943;-81
2022/10/28 08:50:08;;;;;;;;;;;14.50;82.10;;;;;;5045267;28;19925;-79
2022/10/28 08:52:38;;;;;;;;;;;14.50;82.00;;;;;;5059876;28;19921;-79
2022/10/28 08:55:04;;;;;;;;;;;14.60;82.00;;;;;;5045727;28;19960;-79
2022/10/28 08:57:32;;;;;;;;;;;14.60;81.90;;;;;;5044232;28;19921;-79
2022/10/28 08:59:58;;;;;;;;;;;14.70;81.90;;;;;;5035031;28;19948;-80
2022/10/28 09:02:27;;;;;;;;;;;14.70;81.80;;;;;;4995628;28;1823560;-80
2022/10/28 09:04:55;;;;;;;;;;;14.80;81.80;;;;;;5045698;28;19998;-79
2022/10/28 09:07:20;;;;;;;;;;;14.80;81.80;;;;;;5045190;28;19967;-80
2022/10/28 09:09:46;;;;;;;;;;;14.90;81.80;;;;;;5047392;28;19921;-81
2022/10/28 09:12:30;;;;;;;;;;;14.90;81.80;;;;;;5046627;28;20578;-79
2022/10/28 09:15:02;;;;;;;;;;;14.90;81.70;;;;;;5043618;28;19917;-80
2022/10/28 09:17:33;;;;;;;;;;;15.00;81.70;;;;;;5047742;28;20007;-80
2022/10/28 09:20:02;;;;;;;;;;;15.10;82.50;;;;;;5066128;28;19943;-79
2022/10/28 09:22:33;;;;;;;;;;;15.20;81.70;;;;;;5064552;28;19921;-80
2022/10/28 09:25:02;;;;;;;;;;;15.30;81.70;;;;;;5053762;28;19928;-79
2022/10/28 09:27:46;;;;;;;;;;;15.40;81.60;;;;;;5067460;28;19983;-80
2022/10/28 09:30:32;;;;;;;;;;;15.50;81.50;;;;;;5050110;28;19929;-80
2022/10/28 09:33:26;;;;;;;;;;;15.60;81.40;;;;;;5070244;28;20393;-80
2022/10/28 09:35:52;;;;;;;;;;;15.80;81.30;;;;;;5001781;28;19989;-79
2022/10/28 09:38:17;;;;;;;;;;;16.00;81.10;;;;;;5046341;28;19916;-79
2022/10/28 09:40:44;;;;;;;;;;;16.10;81.00;;;;;;5055621;28;20011;-80
2022/10/28 09:43:18;;;;;;;;;;;16.30;80.90;;;;;;5049123;28;19921;-78
2022/10/28 09:45:44;;;;;;;;;;;16.50;80.80;;;;;;5063326;28;19917;-80
2022/10/28 09:48:18;;;;;;;;;;;16.60;80.60;;;;;;5048758;28;19923;-80
2022/10/28 09:50:44;;;;;;;;;;;16.80;80.40;;;;;;5055177;28;19943;-79
2022/10/28 09:53:18;;;;;;;;;;;17.00;80.30;;;;;;5050486;28;19921;-79
2022/10/28 09:55:43;;;;;;;;;;;17.10;81.00;;;;;;5044275;28;19917;-75
2022/10/28 09:58:09;;;;;;;;;;;17.30;80.00;;;;;;5039657;28;19970;-72
2022/10/28 10:00:34;;;;;;;;;;;17.40;79.80;;;;;;5040102;28;20120;-79
2022/10/28 10:03:00;;;;;;;;;;;17.60;79.70;;;;;;5048876;28;19924;-80
2022/10/28 10:05:25;;;;;;;;;;;17.60;79.60;;;;;;5042358;28;19921;-79
2022/10/28 10:07:52;;;;;;;;;;;17.70;79.40;;;;;;5030137;28;19917;-73
2022/10/28 10:10:24;;;;;;;;;;;17.70;80.10;;;;;;5055397;28;19943;-72
2022/10/28 10:12:50;;;;;;;;;;;17.80;79.40;;;;;;5019168;28;19925;-72
2022/10/28 10:15:24;;;;;;;;;;;17.80;79.30;;;;;;5026471;28;19928;-73
2022/10/28 10:17:50;;;;;;;;;;;17.80;79.30;;;;;;5035657;28;19925;-74
2022/10/28 10:20:19;;;;;;;;;;;17.90;79.40;;;;;;5036304;28;20421;-74
2022/10/28 10:22:45;;;;;;;;;;;18.10;79.40;;;;;;5036195;28;19921;-74
2022/10/28 10:25:16;;;;;;;;;;;18.20;79.30;;;;;;5005719;28;19925;-75
2022/10/28 10:27:42;;;;;;;;;;;18.40;79.20;;;;;;5037703;28;19952;-74
2022/10/28 10:30:12;;;;;;;;;;;18.60;79.00;;;;;;5036375;28;19925;-74
2022/10/28 10:32:38;;;;;;;;;;;18.80;79.70;;;;;;5040208;28;19917;-76
2022/10/28 10:35:12;;;;;;;;;;;19.00;78.70;;;;;;5063424;28;19921;-76
2022/10/28 10:37:40;;;;;;;;;;;19.20;78.50;;;;;;5044207;28;19917;-74
2022/10/28 10:40:15;;;;;;;;;;;19.40;78.40;;;;;;5049258;28;19925;-73
2022/10/28 10:42:40;;;;;;;;;;;19.60;78.20;;;;;;5039980;28;19921;-74
2022/10/28 10:45:26;;;;;;;;;;;19.70;77.90;;;;;;5038723;28;19928;-73
2022/10/28 10:48:12;;;;;;;;;;;19.70;77.70;;;;;;5042025;28;19932;-73
2022/10/28 10:50:37;;;;;;;;;;;19.80;77.80;;;;;;5041072;28;19940;-74
2022/10/28 10:53:03;;;;;;;;;;;19.90;77.90;;;;;;5043327;28;21207;-72
2022/10/28 10:55:31;;;;;;;;;;;20.00;77.60;;;;;;5060414;28;19925;-72
2022/10/28 10:58:00;;;;;;;;;;;20.10;77.50;;;;;;5035781;28;19956;-80
2022/10/28 11:00:30;;;;;;;;;;;20.10;77.40;;;;;;5052182;28;19928;-81
2022/10/28 11:02:55;;;;;;;;;;;20.20;77.40;;;;;;5040943;28;19939;-80
2022/10/28 11:05:24;;;;;;;;;;;20.20;77.40;;;;;;5043126;28;19975;-81
2022/10/28 11:07:49;;;;;;;;;;;20.10;77.30;;;;;;5042574;28;19917;-80
2022/10/28 11:10:25;;;;;;;;;;;20.20;77.40;;;;;;5037492;28;20401;-80
2022/10/28 11:12:56;;;;;;;;;;;20.30;77.30;;;;;;5027329;28;19971;-81
2022/10/28 11:15:23;;;;;;;;;;;20.50;77.30;;;;;;5026019;28;19925;-80
2022/10/28 11:18:02;;;;;;;;;;;20.70;77.10;;;;;;5037797;28;19977;-79
2022/10/28 11:20:47;;;;;;;;;;;20.80;76.80;;;;;;5014389;28;20613;-79
2022/10/28 11:23:17;;;;;;;;;;;21.00;76.60;;;;;;5042151;28;19960;-80
2022/10/28 11:25:46;;;;;;;;;;;21.10;76.50;;;;;;5054051;28;19918;-80
2022/10/28 11:28:20;;;;;;;;;;;21.20;76.50;;;;;;5055482;28;21473;-79
2022/10/28 11:30:56;;;;;;;;;;;21.40;76.30;;;;;;5034368;28;19995;-81
2022/10/28 11:33:25;;;;;;;;;;;21.50;76.10;;;;;;5037108;28;19983;-80
2022/10/28 11:36:12;;;;;;;;;;;21.70;76.00;;;;;;5038983;28;19917;-80
2022/10/28 11:38:40;;;;;;;;;;;21.90;75.90;;;;;;5042377;28;19917;-80
2022/10/28 11:41:09;;;;;;;;;;;22.00;75.60;;;;;;5044958;28;20325;-81
2022/10/28 11:43:35;;;;;;;;;;;22.10;75.50;;;;;;5024290;28;20123;-75
2022/10/28 11:46:05;;;;;;;;;;;22.20;76.10;;;;;;5036430;28;20046;-79
2022/10/28 11:49:09;;;;;;;;;;;22.20;75.10;;;;;;5040256;28;19925;-81
2022/10/28 11:51:37;;;;;;;;;;;22.20;75.10;;;;;;4967419;28;19929;-82
2022/10/28 11:54:15;;;;;;;;;;;22.20;75.20;;;;;;4976668;28;20020;-81
2022/10/28 11:56:42;;;;;;;;;;;22.20;75.20;;;;;;5007645;28;19987;-80
2022/10/28 11:59:14;;;;;;;;;;;22.30;75.30;;;;;;5038651;28;19924;-81
2022/10/28 12:01:40;;;;;;;;;;;22.30;75.20;;;;;;5034532;28;19925;-80
2022/10/28 12:04:19;;;;;;;;;;;22.40;75.20;;;;;;5022576;28;20401;-80
2022/10/28 12:06:59;;;;;;;;;;;22.50;75.10;;;;;;5042440;28;19927;-80
2022/10/28 12:09:25;;;;;;;;;;;22.60;74.90;;;;;;5037111;28;19936;-80
2022/10/28 12:12:06;;;;;;;;;;;22.70;74.80;;;;;;5038837;28;20386;-80
2022/10/28 12:14:50;;;;;;;;;;;22.80;74.60;;;;;;5040874;28;19917;-80
2022/10/28 12:17:21;;;;;;;;;;;23.00;74.60;;;;;;5040861;28;19928;-82
2022/10/28 12:19:50;;;;;;;;;;;23.00;74.40;;;;;;5040488;28;19923;-81
2022/10/28 12:22:38;;;;;;;;;;;23.10;74.40;;;;;;5036697;28;20346;-79
2022/10/28 12:25:06;;;;;;;;;;;23.20;74.30;;;;;;5029708;28;19993;-81
2022/10/28 12:27:39;;;;;;;;;;;23.20;74.10;;;;;;5045178;28;19924;-80
2022/10/28 12:30:20;;;;;;;;;;;23.30;74.10;;;;;;5042466;28;19921;-80
2022/10/28 12:32:47;;;;;;;;;;;23.30;74.10;;;;;;5057369;28;19916;-80
2022/10/28 12:35:39;;;;;;;;;;;23.20;74.10;;;;;;5036310;28;19995;-82
2022/10/28 12:38:19;;;;;;;;;;;23.20;74.10;;;;;;5034279;28;19923;-80
2022/10/28 12:40:51;;;;;;;;;;;23.30;74.10;;;;;;5057575;28;20070;-80
2022/10/28 12:43:20;;;;;;;;;;;23.40;74.10;;;;;;5032196;28;19921;-83
2022/10/28 12:45:54;;;;;;;;;;;23.50;74.00;;;;;;5034548;28;19917;-81
2022/10/28 12:48:27;;;;;;;;;;;23.60;73.90;;;;;;5026408;28;19954;-80
2022/10/28 12:51:03;;;;;;;;;;;23.70;73.80;;;;;;5006122;28;20011;-80
2022/10/28 12:53:32;;;;;;;;;;;23.80;73.70;;;;;;4992601;28;19925;-80
2022/10/28 12:55:58;;;;;;;;;;;23.90;73.70;;;;;;5030225;28;19940;-80
2022/10/28 12:58:27;;;;;;;;;;;24.00;73.60;;;;;;5046682;28;20035;-81
2022/10/28 13:01:06;;;;;;;;;;;24.10;73.50;;;;;;5047445;28;19924;-79
2022/10/28 13:03:31;;;;;;;;;;;24.20;73.30;;;;;;5064752;28;19931;-80
2022/10/28 13:06:14;;;;;;;;;;;24.30;73.30;;;;;;5033513;28;19996;-81
2022/10/28 13:08:59;;;;;;;;;;;24.50;73.30;;;;;;5054483;28;19921;-81
2022/10/28 13:11:24;;;;;;;;;;;24.60;73.10;;;;;;5042583;28;19936;-82
2022/10/28 13:14:04;;;;;;;;;;;24.80;72.90;;;;;;5039620;28;19921;-80
2022/10/28 13:16:46;;;;;;;;;;;24.90;72.70;;;;;;5041299;28;20015;-80
2022/10/28 13:19:18;;;;;;;;;;;25.00;72.60;;;;;;5028754;28;19925;-80
2022/10/28 13:21:43;;;;;;;;;;;25.00;72.40;;;;;;5053343;28;19944;-80
2022/10/28 13:24:19;;;;;;;;;;;25.00;72.40;;;;;;5036556;28;20625;-81
2022/10/28 13:26:45;;;;;;;;;;;25.00;72.40;;;;;;5045164;28;20396;-82
2022/10/28 13:29:18;;;;;;;;;;;25.00;72.30;;;;;;5040268;28;19948;-80
2022/10/28 13:31:44;;;;;;;;;;;25.10;72.30;;;;;;5039102;28;19917;-81
2022/10/28 13:34:10;;;;;;;;;;;25.10;72.30;;;;;;5042055;28;20703;-81
2022/10/28 13:36:37;;;;;;;;;;;25.10;72.30;;;;;;5055481;28;19925;-80
2022/10/28 13:39:03;;;;;;;;;;;25.00;72.30;;;;;;5033907;28;20025;-81
2022/10/28 13:41:29;;;;;;;;;;;25.00;72.30;;;;;;5040378;28;20649;-81
2022/10/28 13:43:55;;;;;;;;;;;24.90;72.40;;;;;;5035748;28;19925;-82
2022/10/28 13:46:39;;;;;;;;;;;24.80;72.60;;;;;;5039706;28;19956;-80
2022/10/28 13:49:23;;;;;;;;;;;24.80;72.80;;;;;;5033864;28;19917;-80
2022/10/28 13:51:49;;;;;;;;;;;24.80;72.70;;;;;;5038839;28;19974;-80
2022/10/28 13:54:29;;;;;;;;;;;24.90;72.60;;;;;;5039867;28;19925;-81
2022/10/28 13:56:56;;;;;;;;;;;25.00;72.50;;;;;;5037363;28;19917;-82
2022/10/28 13:59:22;;;;;;;;;;;25.00;72.40;;;;;;5056243;28;19924;-81
2022/10/28 14:01:54;;;;;;;;;;;25.00;72.40;;;;;;5038100;28;19988;-81
2022/10/28 14:04:24;;;;;;;;;;;25.00;72.40;;;;;;5054224;28;20433;-81
2022/10/28 14:06:58;;;;;;;;;;;25.00;72.40;;;;;;5033946;28;19920;-80
2022/10/28 14:09:26;;;;;;;;;;;24.90;72.30;;;;;;5023265;28;20397;-82
2022/10/28 14:12:24;;;;;;;;;;;24.80;72.40;;;;;;5034669;28;19957;-80
2022/10/28 14:14:59;;;;;;;;;;;24.80;72.40;;;;;;5013296;28;19916;-81
2022/10/28 14:17:40;;;;;;;;;;;24.80;72.50;;;;;;5035969;28;19960;-81
2022/10/28 14:20:20;;;;;;;;;;;24.80;72.50;;;;;;5024618;28;19920;-80
2022/10/28 14:22:45;;;;;;;;;;;24.70;72.50;;;;;;5056380;28;20016;-80
2022/10/28 14:25:34;;;;;;;;;;;24.70;72.50;;;;;;5052428;28;19956;-80
2022/10/28 14:27:59;;;;;;;;;;;24.60;73.30;;;;;;5039287;28;19921;-82